Time;durP1;ratioP1;P1;durP2;ratioP2;P2;SDS_P1;SDS_P2;PMS_P1;PMS_P2;Temp;Humidity;BMP_temperature;BMP_pressure;BME280_temperature;BME280_humidity;BME280_pressure;Samples;Min_cycle;Max_cycle;Signal;HPM_P1;HPM_P2
2022/03/27 00:01:24;;;;;;;22.17;11.60;;;9.50;99.90;;;;;;4992593;28;20184;-71
2022/03/27 00:03:50;;;;;;;18.37;10.13;;;9.50;99.90;;;;;;4992556;28;20180;-71
2022/03/27 00:06:16;;;;;;;18.30;10.57;;;9.40;99.90;;;;;;4992572;28;20523;-70
2022/03/27 00:08:42;;;;;;;18.57;12.40;;;9.40;99.90;;;;;;4992453;28;20220;-70
2022/03/27 00:13:59;;;;;;;20.07;10.80;;;9.20;99.90;;;;;;4992492;28;20259;-69
2022/03/27 00:16:25;;;;;;;17.63;10.87;;;9.20;99.90;;;;;;4992696;28;20192;-70
2022/03/27 00:18:51;;;;;;;22.47;12.50;;;9.20;99.90;;;;;;4992266;28;20235;-69
2022/03/27 00:21:17;;;;;;;21.80;11.13;;;9.20;99.90;;;;;;4975133;28;20188;-70
2022/03/27 00:23:44;;;;;;;24.83;10.83;;;9.10;99.90;;;;;;4992188;28;20628;-69
2022/03/27 00:26:10;;;;;;;19.03;9.37;;;9.00;99.90;;;;;;4975292;28;20203;-70
2022/03/27 00:28:36;;;;;;;16.67;8.90;;;8.80;99.90;;;;;;4991891;28;20188;-69
2022/03/27 00:31:05;;;;;;;23.50;9.00;;;8.70;99.90;;;;;;4990946;28;20203;-71
2022/03/27 00:33:32;;;;;;;16.10;9.83;;;8.60;99.90;;;;;;4992642;28;20189;-70
2022/03/27 00:35:59;;;;;;;21.20;9.23;;;8.50;99.90;;;;;;5002743;28;20211;-69
2022/03/27 00:38:25;;;;;;;17.80;8.20;;;8.40;99.90;;;;;;5012136;28;20192;-70
2022/03/27 00:40:52;;;;;;;18.37;9.00;;;8.30;99.90;;;;;;5010453;28;20225;-70
2022/03/27 00:43:19;;;;;;;17.27;8.67;;;8.30;99.90;;;;;;5012132;28;20171;-70
2022/03/27 00:45:46;;;;;;;20.37;9.03;;;8.20;99.90;;;;;;5026452;28;20187;-70
2022/03/27 00:48:12;;;;;;;17.60;8.83;;;8.20;99.90;;;;;;5028976;28;20191;-70
2022/03/27 00:50:38;;;;;;;18.90;9.43;;;8.10;99.90;;;;;;5031358;28;20203;-70
2022/03/27 00:53:04;;;;;;;23.90;11.60;;;8.10;99.90;;;;;;5014017;28;20197;-71
2022/03/27 00:55:30;;;;;;;22.73;10.83;;;8.10;99.90;;;;;;5032916;28;20216;-71
2022/03/27 00:57:55;;;;;;;18.77;9.73;;;7.90;99.90;;;;;;5035524;28;20183;-70
2022/03/27 01:00:56;;;;;;;19.63;9.60;;;7.90;99.90;;;;;;5035172;28;20783;-71
2022/03/27 01:03:25;;;;;;;17.63;9.90;;;7.80;99.90;;;;;;5035313;28;20205;-71
2022/03/27 01:05:53;;;;;;;28.97;11.27;;;7.70;99.90;;;;;;5034876;28;20185;-71
2022/03/27 01:11:13;;;;;;;25.17;9.90;;;7.60;99.90;;;;;;5034945;28;20616;-70
2022/03/27 01:13:43;;;;;;;25.93;10.77;;;7.50;99.90;;;;;;5034880;28;20192;-70
2022/03/27 01:16:40;;;;;;;21.57;8.93;;;7.40;99.90;;;;;;5034887;28;20187;-70
2022/03/27 01:19:09;;;;;;;21.40;11.00;;;7.40;99.90;;;;;;5035137;28;20176;-72
2022/03/27 01:21:40;;;;;;;23.07;11.90;;;7.30;99.90;;;;;;5034912;28;20188;-70
2022/03/27 01:24:07;;;;;;;28.03;12.47;;;7.30;99.90;;;;;;5034956;28;20214;-70
2022/03/27 01:26:34;;;;;;;19.43;10.03;;;7.20;99.90;;;;;;5034983;28;20268;-69
2022/03/27 01:29:00;;;;;;;21.53;10.70;;;7.20;99.90;;;;;;5034611;28;20196;-71
2022/03/27 01:31:26;;;;;;;32.50;12.90;;;7.20;99.90;;;;;;5034564;28;20201;-70
2022/03/27 01:33:52;;;;;;;20.33;10.90;;;7.20;99.90;;;;;;5034387;28;20189;-71
2022/03/27 01:36:22;;;;;;;23.03;11.87;;;7.10;99.90;;;;;;5020899;28;20201;-70
2022/03/27 01:38:49;;;;;;;24.63;11.73;;;7.20;99.90;;;;;;5014587;28;20193;-70
2022/03/27 01:41:15;;;;;;;20.30;11.57;;;7.20;99.90;;;;;;5014779;28;20189;-69
2022/03/27 01:43:41;;;;;;;22.03;11.63;;;7.20;99.90;;;;;;4996846;28;20186;-69
2022/03/27 01:46:07;;;;;;;28.03;12.47;;;7.20;99.90;;;;;;5014381;28;20216;-69
2022/03/27 01:48:33;;;;;;;23.63;12.13;;;7.10;99.90;;;;;;5014342;28;20241;-70
2022/03/27 01:51:02;;;;;;;24.13;12.97;;;7.10;99.90;;;;;;5014240;28;20416;-69
2022/03/27 01:53:28;;;;;;;22.97;11.67;;;7.10;99.90;;;;;;5014439;28;20618;-69
2022/03/27 01:55:54;;;;;;;20.40;10.40;;;7.20;99.90;;;;;;5014153;28;20199;-69
2022/03/27 01:58:21;;;;;;;17.93;9.40;;;7.20;99.90;;;;;;4980780;28;20189;-72
2022/03/27 02:00:47;;;;;;;21.57;10.67;;;7.10;99.90;;;;;;5014075;28;20618;-71
2022/03/27 02:03:13;;;;;;;19.00;9.03;;;7.00;99.90;;;;;;5014623;28;20180;-70
2022/03/27 02:05:38;;;;;;;21.47;10.70;;;6.90;99.90;;;;;;5013819;28;20554;-70
2022/03/27 02:08:05;;;;;;;19.57;10.07;;;6.80;99.90;;;;;;4996298;28;20196;-71
2022/03/27 02:10:31;;;;;;;21.87;10.53;;;6.70;99.90;;;;;;5014321;28;20560;-71
2022/03/27 02:12:57;;;;;;;19.43;10.60;;;6.70;99.90;;;;;;5013649;28;20228;-71
2022/03/27 02:15:24;;;;;;;19.57;10.00;;;6.60;99.90;;;;;;5013826;28;20207;-70
2022/03/27 02:17:50;;;;;;;22.00;10.23;;;6.50;99.90;;;;;;5013406;28;20647;-70
2022/03/27 02:20:16;;;;;;;18.10;8.83;;;6.50;99.90;;;;;;5013943;28;20311;-70
2022/03/27 02:22:42;;;;;;;17.50;9.73;;;6.40;99.90;;;;;;5013816;28;20207;-70
2022/03/27 02:25:08;;;;;;;18.30;9.47;;;6.40;99.90;;;;;;5013929;28;20265;-70
2022/03/27 02:27:33;;;;;;;19.47;9.10;;;6.40;99.90;;;;;;5013268;28;20192;-71
2022/03/27 02:29:59;;;;;;;16.83;9.23;;;6.40;99.90;;;;;;5013702;28;20172;-70
2022/03/27 02:32:25;;;;;;;22.77;9.00;;;6.30;99.90;;;;;;5012427;28;20227;-71
2022/03/27 02:34:51;;;;;;;15.73;8.60;;;6.30;99.90;;;;;;5015168;28;20658;-68
2022/03/27 02:37:17;;;;;;;12.93;7.97;;;6.30;99.90;;;;;;5033561;28;20179;-70
2022/03/27 02:39:44;;;;;;;19.90;8.30;;;6.20;99.90;;;;;;5033311;28;20326;-67
2022/03/27 02:42:10;;;;;;;16.53;8.47;;;6.20;99.90;;;;;;5033369;28;20278;-71
2022/03/27 02:44:36;;;;;;;20.10;10.03;;;6.20;99.90;;;;;;5015651;28;20402;-70
2022/03/27 02:47:01;;;;;;;20.27;9.67;;;6.10;99.90;;;;;;5033050;28;20755;-70
2022/03/27 02:49:27;;;;;;;18.50;8.80;;;6.10;99.90;;;;;;5015575;28;20235;-70
2022/03/27 02:51:53;;;;;;;20.73;8.37;;;6.10;99.90;;;;;;5032953;28;20673;-70
2022/03/27 02:54:19;;;;;;;17.50;9.03;;;6.00;99.90;;;;;;5033292;28;20190;-70
2022/03/27 02:56:46;;;;;;;15.07;7.37;;;5.90;99.90;;;;;;5032530;28;20183;-70
2022/03/27 02:59:12;;;;;;;13.93;7.77;;;5.90;99.90;;;;;;4999054;28;20190;-70
2022/03/27 03:01:37;;;;;;;16.67;6.83;;;5.80;99.90;;;;;;5032989;28;20179;-70
2022/03/27 03:04:04;;;;;;;17.13;8.23;;;5.80;99.90;;;;;;5014787;28;20963;-69
2022/03/27 03:06:32;;;;;;;20.90;8.17;;;5.80;99.90;;;;;;5032847;28;20183;-69
2022/03/27 03:08:58;;;;;;;17.00;8.07;;;5.70;99.90;;;;;;5032680;28;20190;-69
2022/03/27 03:11:24;;;;;;;21.60;7.83;;;5.60;99.90;;;;;;5032744;28;20744;-70
2022/03/27 03:13:51;;;;;;;21.30;7.77;;;5.60;99.90;;;;;;5032560;28;20190;-71
2022/03/27 03:16:19;;;;;;;18.07;7.93;;;5.60;99.90;;;;;;5032497;28;20277;-70
2022/03/27 03:18:45;;;;;;;15.70;7.13;;;5.60;99.90;;;;;;5032128;28;20219;-70
2022/03/27 03:21:11;;;;;;;24.50;8.10;;;5.50;99.90;;;;;;5032888;28;20210;-71
2022/03/27 03:23:37;;;;;;;17.13;7.80;;;5.50;99.90;;;;;;5014909;28;20703;-71
2022/03/27 03:26:04;;;;;;;14.27;7.53;;;5.40;99.90;;;;;;5032207;28;20314;-70
2022/03/27 03:28:30;;;;;;;17.23;7.30;;;5.40;99.90;;;;;;5032481;28;20175;-71
2022/03/27 03:30:55;;;;;;;14.50;6.50;;;5.30;99.90;;;;;;5032103;28;20210;-70
2022/03/27 03:33:21;;;;;;;17.83;7.63;;;5.30;99.90;;;;;;5032332;28;20193;-71
2022/03/27 03:35:47;;;;;;;13.33;6.40;;;5.20;99.90;;;;;;5022628;28;20315;-69
2022/03/27 03:38:13;;;;;;;14.30;7.27;;;5.20;99.90;;;;;;5012883;28;20191;-70
2022/03/27 03:40:41;;;;;;;16.40;6.90;;;5.10;99.90;;;;;;5011418;28;20212;-70
2022/03/27 03:43:07;;;;;;;17.87;7.67;;;5.10;99.90;;;;;;5011919;28;20194;-70
2022/03/27 03:45:33;;;;;;;17.13;7.67;;;5.10;99.90;;;;;;5012498;28;20623;-70
2022/03/27 03:47:59;;;;;;;15.07;8.53;;;5.00;99.90;;;;;;5012086;28;20187;-67
2022/03/27 03:50:26;;;;;;;12.10;6.03;;;5.00;99.90;;;;;;5012272;28;20182;-71
2022/03/27 03:52:52;;;;;;;15.90;7.97;;;4.90;99.90;;;;;;5012047;28;20546;-71
2022/03/27 03:55:18;;;;;;;11.90;5.37;;;4.90;99.90;;;;;;5011172;28;20186;-70
2022/03/27 03:57:44;;;;;;;13.33;6.70;;;4.80;99.90;;;;;;5012191;28;20183;-70
2022/03/27 04:00:10;;;;;;;14.40;6.13;;;4.80;99.90;;;;;;5010763;28;20582;-71
2022/03/27 04:02:36;;;;;;;11.50;4.63;;;4.70;99.90;;;;;;5011894;28;20569;-73
2022/03/27 04:05:02;;;;;;;13.57;5.93;;;4.70;99.90;;;;;;5011983;28;20179;-71
2022/03/27 04:07:28;;;;;;;15.17;6.50;;;4.60;99.90;;;;;;5012019;28;20175;-70
2022/03/27 04:09:53;;;;;;;14.63;6.30;;;4.60;99.90;;;;;;5011631;28;20609;-70
2022/03/27 04:12:19;;;;;;;16.50;5.87;;;4.50;99.90;;;;;;5011225;28;20233;-70
2022/03/27 04:14:45;;;;;;;13.63;5.33;;;4.50;99.90;;;;;;5012170;28;20190;-70
2022/03/27 04:17:11;;;;;;;16.03;5.27;;;4.40;99.90;;;;;;5011762;28;20643;-71
2022/03/27 04:19:37;;;;;;;13.20;4.67;;;4.30;99.90;;;;;;5011469;28;20225;-71
2022/03/27 04:22:04;;;;;;;12.13;4.40;;;4.20;99.90;;;;;;5011570;28;20190;-71
2022/03/27 04:24:29;;;;;;;10.23;4.53;;;4.10;99.90;;;;;;5011647;28;20591;-70
2022/03/27 04:26:55;;;;;;;9.70;3.23;;;4.10;99.90;;;;;;4993865;28;20183;-70
2022/03/27 04:29:21;;;;;;;12.80;4.30;;;4.10;99.90;;;;;;5012364;28;20186;-70
2022/03/27 04:31:47;;;;;;;18.27;4.23;;;4.10;99.90;;;;;;5015670;28;20203;-70
2022/03/27 04:34:13;;;;;;;8.63;4.03;;;4.10;99.90;;;;;;5015448;28;20187;-71
2022/03/27 04:36:40;;;;;;;8.33;3.63;;;4.10;99.90;;;;;;5030726;28;20595;-71
2022/03/27 04:39:07;;;;;;;11.83;3.43;;;4.20;99.90;;;;;;5035217;28;20177;-72
2022/03/27 04:41:33;;;;;;;11.93;3.83;;;4.20;99.90;;;;;;5035569;28;20285;-71
2022/03/27 04:43:59;;;;;;;13.53;3.40;;;4.20;99.90;;;;;;5035049;28;20236;-70
2022/03/27 04:46:26;;;;;;;14.50;8.00;;;4.20;99.90;;;;;;5035505;28;20196;-73
2022/03/27 04:48:52;;;;;;;9.73;3.30;;;4.20;99.90;;;;;;5034992;28;20224;-70
2022/03/27 04:51:18;;;;;;;15.30;3.67;;;4.30;99.90;;;;;;5035154;28;20298;-69
2022/03/27 04:53:44;;;;;;;12.03;3.60;;;4.20;99.60;;;;;;5035121;28;20190;-70
2022/03/27 04:56:10;;;;;;;11.97;3.40;;;4.20;99.60;;;;;;5035186;28;20186;-71
2022/03/27 04:58:36;;;;;;;10.53;3.50;;;4.30;99.20;;;;;;5017789;28;20554;-69
2022/03/27 05:01:03;;;;;;;8.10;3.67;;;4.30;99.20;;;;;;5017065;28;20190;-70
2022/03/27 05:03:29;;;;;;;8.57;2.93;;;4.40;98.80;;;;;;5035192;28;20235;-72
2022/03/27 05:05:55;;;;;;;8.47;3.40;;;4.40;98.40;;;;;;5035122;28;20183;-71
2022/03/27 05:08:21;;;;;;;13.17;3.70;;;4.40;97.90;;;;;;5035141;28;20311;-71
2022/03/27 05:10:47;;;;;;;6.07;2.40;;;4.50;97.60;;;;;;5017353;28;20189;-71
2022/03/27 05:13:17;;;;;;;10.03;2.70;;;4.50;97.50;;;;;;5034699;28;20212;-72
2022/03/27 05:15:43;;;;;;;7.73;2.57;;;4.60;97.20;;;;;;5034842;28;20194;-71
2022/03/27 05:18:09;;;;;;;7.47;2.50;;;4.60;96.70;;;;;;5034377;28;20201;-70
2022/03/27 05:20:39;;;;;;;3.37;1.97;;;4.60;95.80;;;;;;5034814;28;20182;-73
2022/03/27 05:23:05;;;;;;;10.43;2.50;;;4.60;94.60;;;;;;5034351;28;20185;-71
2022/03/27 05:25:39;;;;;;;10.33;2.20;;;4.60;94.20;;;;;;5034640;28;20185;-71
2022/03/27 05:28:05;;;;;;;3.80;1.40;;;4.60;92.60;;;;;;5034038;28;20202;-71
2022/03/27 05:30:32;;;;;;;7.80;2.97;;;4.60;92.00;;;;;;5016813;28;20662;-72
2022/03/27 05:32:57;;;;;;;7.77;2.07;;;4.50;92.20;;;;;;5034096;28;20237;-70
2022/03/27 05:35:23;;;;;;;8.70;1.67;;;4.60;91.40;;;;;;5027823;28;20186;-70
2022/03/27 05:37:50;;;;;;;2.07;1.30;;;4.50;90.50;;;;;;5014508;28;20182;-71
2022/03/27 05:40:18;;;;;;;11.30;1.50;;;4.40;90.50;;;;;;4996470;28;20195;-73
2022/03/27 05:42:44;;;;;;;7.30;1.90;;;4.40;90.30;;;;;;5014414;28;20539;-73
2022/03/27 05:45:10;;;;;;;5.17;1.60;;;4.40;90.30;;;;;;5014414;28;20266;-72
2022/03/27 05:47:41;;;;;;;7.27;1.63;;;4.50;90.30;;;;;;5017190;28;20192;-63
2022/03/27 05:50:09;;;;;;;6.57;1.97;;;4.40;90.40;;;;;;5024339;28;20238;-63
2022/03/27 05:52:35;;;;;;;7.83;2.60;;;4.40;90.50;;;;;;5012447;28;20506;-62
2022/03/27 05:55:00;;;;;;;5.13;2.07;;;4.40;90.50;;;;;;5023425;28;20190;-64
2022/03/27 05:57:26;;;;;;;4.43;2.07;;;4.40;90.50;;;;;;5023298;28;20209;-63
2022/03/27 05:59:52;;;;;;;6.03;1.60;;;4.40;90.40;;;;;;5014382;28;20251;-62
2022/03/27 06:02:18;;;;;;;5.33;1.90;;;4.40;90.40;;;;;;5025002;28;20191;-62
2022/03/27 06:04:44;;;;;;;4.13;1.60;;;4.50;90.10;;;;;;5021371;28;20209;-62
2022/03/27 06:07:10;;;;;;;5.00;1.97;;;4.50;88.70;;;;;;5022043;28;20195;-62
2022/03/27 06:09:36;;;;;;;5.73;2.03;;;4.50;88.90;;;;;;5006306;28;20234;-63
2022/03/27 06:12:04;;;;;;;4.57;1.27;;;4.50;87.90;;;;;;5021877;28;20219;-62
2022/03/27 06:14:30;;;;;;;3.50;1.70;;;4.50;87.60;;;;;;5022994;28;20193;-60
2022/03/27 06:16:56;;;;;;;7.53;2.20;;;4.60;87.30;;;;;;5022025;28;20630;-69
2022/03/27 06:19:22;;;;;;;11.33;2.37;;;4.60;87.10;;;;;;5022421;28;20651;-70
2022/03/27 06:21:48;;;;;;;7.07;1.77;;;4.70;86.00;;;;;;5021924;28;20202;-70
2022/03/27 06:24:14;;;;;;;7.20;1.87;;;4.70;83.30;;;;;;5004667;28;20191;-69
2022/03/27 06:26:40;;;;;;;8.13;1.17;;;4.60;81.60;;;;;;5005071;28;20325;-69
2022/03/27 06:29:09;;;;;;;3.47;1.50;;;4.60;80.10;;;;;;5020532;28;20595;-69
2022/03/27 06:31:36;;;;;;;5.17;1.00;;;4.50;78.40;;;;;;5021425;28;20264;-69
2022/03/27 06:34:01;;;;;;;20.87;1.83;;;4.60;79.30;;;;;;5021041;28;20678;-70
2022/03/27 06:36:27;;;;;;;12.53;1.87;;;4.60;79.60;;;;;;5022156;28;20187;-71
2022/03/27 06:38:53;;;;;;;4.37;1.50;;;4.70;78.30;;;;;;5021274;28;20585;-68
2022/03/27 06:41:18;;;;;;;6.30;1.80;;;4.70;78.30;;;;;;5021952;28;20190;-62
2022/03/27 06:43:44;;;;;;;3.80;1.00;;;4.70;76.30;;;;;;5021897;28;20192;-63
2022/03/27 06:46:15;;;;;;;4.27;1.73;;;4.60;76.40;;;;;;5021136;28;20664;-63
2022/03/27 06:48:41;;;;;;;5.13;1.40;;;4.60;77.60;;;;;;5004667;28;20243;-61
2022/03/27 06:51:06;;;;;;;9.73;2.23;;;4.60;77.30;;;;;;5021292;28;20618;-62
2022/03/27 06:53:32;;;;;;;6.53;1.57;;;4.60;76.70;;;;;;5021223;28;20226;-64
2022/03/27 06:55:58;;;;;;;2.87;1.20;;;4.70;76.30;;;;;;5005305;28;20666;-63
2022/03/27 06:58:23;;;;;;;6.20;1.70;;;4.80;75.50;;;;;;5021328;28;20219;-60
2022/03/27 07:03:33;;;;;;;4.20;1.83;;;5.00;75.30;;;;;;5021490;28;20198;-60
2022/03/27 07:05:59;;;;;;;5.30;1.37;;;5.10;74.80;;;;;;5020830;28;20579;-65
2022/03/27 07:08:25;;;;;;;3.90;1.77;;;5.20;74.60;;;;;;5019630;28;20561;-63
2022/03/27 07:10:50;;;;;;;10.40;1.67;;;5.30;74.10;;;;;;5020461;28;20191;-69
2022/03/27 07:13:18;;;;;;;4.93;1.40;;;5.30;74.10;;;;;;5022006;28;20190;-60
2022/03/27 07:15:45;;;;;;;4.70;1.67;;;5.40;73.10;;;;;;5004052;28;20713;-64
2022/03/27 07:18:11;;;;;;;3.27;1.57;;;5.40;71.80;;;;;;5005505;28;20290;-67
2022/03/27 07:20:43;;;;;;;7.83;1.77;;;5.40;71.50;;;;;;5020149;28;20191;-62
2022/03/27 07:23:17;;;;;;;7.23;1.80;;;5.30;71.00;;;;;;5020711;28;20219;-61
2022/03/27 07:25:46;;;;;;;8.00;1.93;;;5.40;71.50;;;;;;5021169;28;20225;-61
2022/03/27 07:28:12;;;;;;;5.83;1.67;;;5.50;71.00;;;;;;5020511;28;20214;-63
2022/03/27 07:30:43;;;;;;;5.70;1.50;;;5.80;70.80;;;;;;5018778;28;20632;-61
2022/03/27 07:33:09;;;;;;;8.33;1.90;;;5.70;68.60;;;;;;5019918;28;20553;-60
2022/03/27 07:35:35;;;;;;;3.47;1.60;;;5.70;68.00;;;;;;5020838;28;20820;-63
2022/03/27 07:38:03;;;;;;;4.20;1.47;;;5.60;67.30;;;;;;5019156;28;20226;-61
2022/03/27 07:40:29;;;;;;;3.17;1.40;;;5.70;67.30;;;;;;5019387;28;20286;-63
2022/03/27 07:42:56;;;;;;;6.37;1.80;;;5.70;66.40;;;;;;5020370;28;20179;-61
2022/03/27 07:45:24;;;;;;;3.03;1.77;;;5.80;66.60;;;;;;5020118;28;20282;-64
2022/03/27 07:47:51;;;;;;;4.07;1.60;;;5.80;66.60;;;;;;5019982;28;20176;-60
2022/03/27 07:50:18;;;;;;;3.43;1.30;;;5.80;66.20;;;;;;5003127;28;20246;-61
2022/03/27 07:52:45;;;;;;;4.23;1.00;;;5.60;65.20;;;;;;5020016;28;20234;-61
2022/03/27 07:55:13;;;;;;;6.03;1.53;;;5.70;65.00;;;;;;5002774;28;20201;-61
2022/03/27 07:57:40;;;;;;;3.57;1.00;;;5.60;63.30;;;;;;5021161;28;20187;-64
2022/03/27 08:00:08;;;;;;;2.60;1.00;;;5.60;58.40;;;;;;5020388;28;20191;-66
2022/03/27 08:02:34;;;;;;;6.77;1.40;;;5.70;58.20;;;;;;5020142;28;20294;-62
2022/03/27 08:05:00;;;;;;;3.67;1.00;;;5.80;57.70;;;;;;5019697;28;20274;-61
2022/03/27 08:07:26;;;;;;;2.93;1.27;;;5.80;56.30;;;;;;5020320;28;20227;-63
2022/03/27 08:09:52;;;;;;;4.97;1.73;;;5.90;55.90;;;;;;5003012;28;20709;-63
2022/03/27 08:12:20;;;;;;;4.33;1.27;;;5.80;55.40;;;;;;5019597;28;20321;-63
2022/03/27 08:14:48;;;;;;;11.13;1.47;;;5.90;55.10;;;;;;5020050;28;20195;-60
2022/03/27 08:17:15;;;;;;;5.13;1.60;;;5.80;53.70;;;;;;5004798;28;20202;-60
2022/03/27 08:19:42;;;;;;;3.20;1.10;;;5.70;52.70;;;;;;5021246;28;20192;-60
2022/03/27 08:22:08;;;;;;;5.00;1.20;;;5.50;52.50;;;;;;5004610;28;20202;-60
2022/03/27 08:24:34;;;;;;;5.57;1.27;;;5.50;53.40;;;;;;5019389;28;20202;-64
2022/03/27 08:27:02;;;;;;;4.47;1.53;;;5.40;53.40;;;;;;5019432;28;20183;-65
2022/03/27 08:29:31;;;;;;;5.90;1.40;;;5.40;53.90;;;;;;5020619;28;20190;-61
2022/03/27 08:32:00;;;;;;;2.20;1.10;;;5.50;55.00;;;;;;5020367;28;20217;-63
2022/03/27 08:34:28;;;;;;;9.10;1.33;;;5.60;54.70;;;;;;5003249;28;20290;-63
2022/03/27 08:36:55;;;;;;;6.43;1.40;;;5.70;54.90;;;;;;5019402;28;20551;-63
2022/03/27 08:39:21;;;;;;;6.30;1.90;;;5.70;55.20;;;;;;5020126;28;20590;-62
2022/03/27 08:41:48;;;;;;;5.60;1.50;;;5.90;54.50;;;;;;5002572;28;20196;-65
2022/03/27 08:44:21;;;;;;;2.53;1.10;;;5.90;53.70;;;;;;5002510;28;20187;-63
2022/03/27 08:46:48;;;;;;;6.50;1.50;;;5.90;53.10;;;;;;5019836;28;20186;-71
2022/03/27 08:49:17;;;;;;;3.87;1.23;;;6.00;53.40;;;;;;5020532;28;20298;-62
2022/03/27 08:51:45;;;;;;;3.23;1.57;;;6.10;53.70;;;;;;5015072;28;20273;-61
2022/03/27 08:54:16;;;;;;;7.23;2.23;;;6.30;54.80;;;;;;5018922;28;20536;-63
2022/03/27 08:56:52;;;;;;;2.27;1.10;;;6.50;54.00;;;;;;5018767;28;20183;-62
2022/03/27 08:59:19;;;;;;;3.13;1.20;;;6.30;53.30;;;;;;5018197;28;20352;-72
2022/03/27 09:01:45;;;;;;;5.80;1.23;;;6.20;53.30;;;;;;5020520;28;20203;-62
2022/03/27 09:04:13;;;;;;;5.20;1.57;;;6.40;52.50;;;;;;5019901;28;20308;-62
2022/03/27 09:06:39;;;;;;;5.10;1.77;;;6.40;51.60;;;;;;5001766;28;20759;-61
2022/03/27 09:09:06;;;;;;;4.60;1.10;;;6.30;51.50;;;;;;5018809;28;20291;-64
2022/03/27 09:11:34;;;;;;;3.53;1.67;;;6.20;51.70;;;;;;5019515;28;20293;-65
2022/03/27 09:14:03;;;;;;;6.90;1.50;;;6.30;51.20;;;;;;5020342;28;20536;-62
2022/03/27 09:16:29;;;;;;;4.43;1.27;;;6.50;51.20;;;;;;4988353;28;20280;-64
2022/03/27 09:19:01;;;;;;;7.73;1.50;;;6.70;50.40;;;;;;5023610;28;20198;-62
2022/03/27 09:21:28;;;;;;;7.03;1.33;;;6.70;49.80;;;;;;5022720;28;20183;-66
2022/03/27 09:23:59;;;;;;;2.03;1.03;;;6.60;49.60;;;;;;5005754;28;20193;-69
2022/03/27 09:26:26;;;;;;;10.23;2.07;;;6.70;48.30;;;;;;5021861;28;20201;-69
2022/03/27 09:28:54;;;;;;;7.30;1.80;;;6.70;48.40;;;;;;5023131;28;20249;-71
2022/03/27 09:31:22;;;;;;;3.03;1.20;;;6.90;48.60;;;;;;5022472;28;20204;-70
2022/03/27 09:33:52;;;;;;;5.17;1.60;;;6.70;48.00;;;;;;5023183;28;20572;-74
2022/03/27 09:36:42;;;;;;;5.17;1.67;;;6.70;48.40;;;;;;5022585;28;20190;-70
2022/03/27 09:39:19;;;;;;;5.27;1.57;;;6.90;49.20;;;;;;5022301;28;20331;-74
2022/03/27 09:42:02;;;;;;;3.67;1.30;;;7.00;48.30;;;;;;5021554;28;20886;-71
2022/03/27 09:44:36;;;;;;;11.10;2.40;;;7.10;47.20;;;;;;5021309;28;20232;-72
2022/03/27 09:47:06;;;;;;;4.20;1.40;;;7.00;47.30;;;;;;5021593;28;20205;-66
2022/03/27 09:49:35;;;;;;;6.50;1.60;;;7.00;47.60;;;;;;5020823;28;20257;-73
2022/03/27 09:52:05;;;;;;;2.90;1.27;;;7.10;47.40;;;;;;5021557;28;20282;-74
2022/03/27 09:54:51;;;;;;;4.33;1.70;;;7.20;47.40;;;;;;5021116;28;20198;-74
2022/03/27 09:57:18;;;;;;;3.30;1.03;;;7.40;47.10;;;;;;5009398;28;20646;-72
2022/03/27 09:59:45;;;;;;;3.03;1.00;;;7.20;45.90;;;;;;5002490;28;20700;-70
2022/03/27 10:02:22;;;;;;;5.20;1.60;;;7.40;46.10;;;;;;5018790;28;20194;-73
2022/03/27 10:04:55;;;;;;;7.27;1.43;;;7.30;46.00;;;;;;5021100;28;20212;-74
2022/03/27 10:07:25;;;;;;;5.83;1.40;;;7.50;46.40;;;;;;5021651;28;20217;-76
2022/03/27 10:09:55;;;;;;;4.23;1.50;;;7.60;45.60;;;;;;5004741;28;20193;-75
2022/03/27 10:12:27;;;;;;;5.37;1.60;;;7.60;45.40;;;;;;5022071;28;20305;-74
2022/03/27 10:15:03;;;;;;;5.53;1.43;;;7.60;44.60;;;;;;5022652;28;20650;-73
2022/03/27 10:17:31;;;;;;;4.27;1.37;;;7.60;44.60;;;;;;5022699;28;20190;-73
2022/03/27 10:20:08;;;;;;;4.10;1.27;;;7.60;44.70;;;;;;5022266;28;20228;-72
2022/03/27 10:22:39;;;;;;;5.07;1.67;;;7.60;44.70;;;;;;5022688;28;20219;-76
2022/03/27 10:25:08;;;;;;;5.47;1.40;;;7.80;44.70;;;;;;5021694;28;20189;-71
2022/03/27 10:27:38;;;;;;;5.33;1.37;;;7.90;45.20;;;;;;5020791;28;20194;-73
2022/03/27 10:30:06;;;;;;;6.43;1.40;;;7.80;43.70;;;;;;5021420;28;20290;-71
2022/03/27 10:32:34;;;;;;;3.67;1.40;;;8.00;44.50;;;;;;5004681;28;20268;-72
2022/03/27 10:35:29;;;;;;;3.87;1.23;;;7.90;43.40;;;;;;5022213;28;20187;-71
2022/03/27 10:38:24;;;;;;;7.27;1.50;;;8.10;41.70;;;;;;5013193;28;20156;-73
2022/03/27 10:41:24;;;;;;;3.70;1.60;;;8.00;42.60;;;;;;5012102;28;20179;-73
2022/03/27 10:44:12;;;;;;;8.27;2.43;;;8.10;42.70;;;;;;5011377;28;20174;-76
2022/03/27 10:46:38;;;;;;;4.40;1.90;;;8.20;42.70;;;;;;5012791;28;20184;-75
2022/03/27 10:49:12;;;;;;;4.10;1.63;;;8.30;42.30;;;;;;5012224;28;20554;-69
2022/03/27 10:51:47;;;;;;;4.03;1.67;;;8.40;42.50;;;;;;4995311;28;20243;-75
2022/03/27 10:54:16;;;;;;;5.50;2.57;;;8.50;42.70;;;;;;5012262;28;20184;-76
2022/03/27 10:56:50;;;;;;;2.70;1.17;;;8.60;42.50;;;;;;5012953;28;20168;-75
2022/03/27 10:59:22;;;;;;;2.50;1.30;;;8.50;40.10;;;;;;5012399;28;20194;-74
2022/03/27 11:01:50;;;;;;;4.93;1.23;;;8.50;39.80;;;;;;5012878;28;20183;-73
2022/03/27 11:04:21;;;;;;;2.80;1.23;;;8.40;40.30;;;;;;5011934;28;20176;-72
2022/03/27 11:06:48;;;;;;;5.67;1.93;;;8.60;41.30;;;;;;5012674;28;20214;-72
2022/03/27 11:09:32;;;;;;;3.73;1.60;;;8.80;40.90;;;;;;5012320;28;20176;-74
2022/03/27 11:11:59;;;;;;;3.87;1.60;;;8.90;40.30;;;;;;5012824;28;20210;-71
2022/03/27 11:14:51;;;;;;;4.43;1.60;;;8.80;39.90;;;;;;5012234;28;20517;-73
2022/03/27 11:17:34;;;;;;;5.33;1.80;;;8.70;40.40;;;;;;5001335;28;20672;-72
2022/03/27 11:20:02;;;;;;;2.80;1.33;;;8.80;41.20;;;;;;5013046;28;20636;-73
2022/03/27 11:22:53;;;;;;;6.47;1.70;;;9.10;40.30;;;;;;5011821;28;20182;-73
2022/03/27 11:25:44;;;;;;;2.67;1.20;;;9.30;39.80;;;;;;5012198;28;20179;-73
2022/03/27 11:28:14;;;;;;;4.80;1.40;;;9.40;39.20;;;;;;5012094;28;20163;-72
2022/03/27 11:31:00;;;;;;;5.17;1.50;;;9.50;39.20;;;;;;5012280;28;20198;-73
2022/03/27 11:33:30;;;;;;;7.80;1.67;;;9.60;39.10;;;;;;5011988;28;20293;-71
2022/03/27 11:36:04;;;;;;;7.13;1.60;;;9.80;38.30;;;;;;5023298;28;20198;-73
2022/03/27 11:38:49;;;;;;;3.17;1.27;;;10.20;37.70;;;;;;5014121;28;20189;-74
2022/03/27 11:41:42;;;;;;;2.40;1.20;;;10.30;38.00;;;;;;5031242;28;20265;-74
2022/03/27 11:44:17;;;;;;;10.03;1.63;;;10.30;36.30;;;;;;5030908;28;20170;-74
2022/03/27 11:46:55;;;;;;;2.10;1.20;;;10.40;35.70;;;;;;5031569;28;20243;-74
2022/03/27 11:49:22;;;;;;;5.07;1.97;;;11.10;36.00;;;;;;5031201;28;20292;-72
2022/03/27 11:52:05;;;;;;;6.97;1.37;;;12.00;35.70;;;;;;5031341;28;20209;-74
2022/03/27 11:54:31;;;;;;;4.87;1.30;;;13.60;33.50;;;;;;5031434;28;20182;-73
2022/03/27 11:56:59;;;;;;;6.67;2.07;;;14.90;31.50;;;;;;5014144;28;20196;-73
2022/03/27 11:59:28;;;;;;;4.83;1.60;;;14.00;31.20;;;;;;5030574;28;20658;-74
2022/03/27 12:01:58;;;;;;;4.97;1.20;;;13.40;31.50;;;;;;5014055;28;20648;-74
2022/03/27 12:04:25;;;;;;;3.13;1.53;;;13.90;31.00;;;;;;5031436;28;20374;-73
2022/03/27 12:07:09;;;;;;;5.63;1.40;;;15.20;30.70;;;;;;5031405;28;20187;-74
2022/03/27 12:09:35;;;;;;;5.50;1.50;;;15.30;29.60;;;;;;5031680;28;20167;-73
2022/03/27 12:12:10;;;;;;;4.03;1.70;;;15.20;29.10;;;;;;5031508;28;20215;-74
2022/03/27 12:14:56;;;;;;;5.27;1.30;;;15.90;28.90;;;;;;5031073;28;20189;-75
2022/03/27 12:17:23;;;;;;;2.80;1.20;;;15.10;28.10;;;;;;5030855;28;20182;-75
2022/03/27 12:20:08;;;;;;;3.43;1.40;;;14.70;28.20;;;;;;5013454;28;20183;-75
2022/03/27 12:22:38;;;;;;;8.67;1.40;;;14.30;28.80;;;;;;5031381;28;20190;-73
2022/03/27 12:25:07;;;;;;;3.77;1.60;;;14.70;29.20;;;;;;5031100;28;20179;-75
2022/03/27 12:30:20;;;;;;;4.43;1.43;;;14.00;29.80;;;;;;5030610;28;20572;-73
2022/03/27 12:32:47;;;;;;;2.97;1.40;;;14.30;30.30;;;;;;5031232;28;20315;-73
2022/03/27 12:35:21;;;;;;;5.43;1.50;;;15.00;29.80;;;;;;5026334;28;20691;-73
2022/03/27 12:37:47;;;;;;;4.23;1.40;;;14.50;29.70;;;;;;5011057;28;20224;-73
2022/03/27 12:40:13;;;;;;;5.57;1.60;;;14.10;30.00;;;;;;5011118;28;20288;-73
2022/03/27 12:42:48;;;;;;;4.40;1.97;;;14.60;30.00;;;;;;5010226;28;20215;-73
2022/03/27 12:45:19;;;;;;;7.53;1.87;;;14.50;29.00;;;;;;5010423;28;20192;-73
2022/03/27 12:47:58;;;;;;;3.33;1.40;;;14.20;29.10;;;;;;5011412;28;20650;-73
2022/03/27 12:50:42;;;;;;;3.93;1.67;;;13.00;29.20;;;;;;5012401;28;20307;-71
2022/03/27 12:53:13;;;;;;;2.30;0.90;;;12.20;30.40;;;;;;5013728;28;20217;-74
2022/03/27 12:55:46;;;;;;;3.50;2.40;;;11.90;30.90;;;;;;5015464;28;20172;-75
2022/03/27 12:58:14;;;;;;;3.17;1.13;;;12.10;31.50;;;;;;5015446;28;20319;-72
2022/03/27 13:00:40;;;;;;;5.27;1.70;;;11.90;31.10;;;;;;5014823;28;20197;-74
2022/03/27 13:03:09;;;;;;;7.40;1.70;;;12.80;31.50;;;;;;5013333;28;20621;-71
2022/03/27 13:05:35;;;;;;;4.13;1.77;;;14.40;30.00;;;;;;5015841;28;20191;-72
2022/03/27 13:08:01;;;;;;;2.13;1.40;;;14.70;29.40;;;;;;5014697;28;20183;-72
2022/03/27 13:10:27;;;;;;;4.60;1.30;;;14.10;29.00;;;;;;5014480;28;20188;-73